createdAt,value
2017-06-04T22:20:46.511Z,18.49
2017-06-04T22:20:57.826Z,18.48
2017-06-04T22:21:09.073Z,18.49
2017-06-04T22:22:07.303Z,18.46
2017-06-04T22:23:08.176Z,18.45
2017-06-04T22:24:08.992Z,18.41
2017-06-04T22:25:08.410Z,18.38
2017-06-04T22:26:07.574Z,18.38
2017-06-04T22:27:07.392Z,18.39
2017-06-04T22:28:08.153Z,18.42
2017-06-04T22:29:08.082Z,18.44
2017-06-04T22:30:07.396Z,18.44
2017-06-04T22:31:07.744Z,18.44
2017-06-04T22:32:07.355Z,18.44
2017-06-04T22:33:08.028Z,18.43
2017-06-04T22:34:07.518Z,18.43
2017-06-04T22:35:07.313Z,18.42
2017-06-04T22:36:10.510Z,18.37
2017-06-04T22:37:07.296Z,18.37
2017-06-04T22:38:07.325Z,18.36
2017-06-04T22:39:08.101Z,18.36
2017-06-04T22:40:08.072Z,18.35
2017-06-04T22:41:08.228Z,18.36
2017-06-04T22:42:07.351Z,18.37
2017-06-04T22:43:08.367Z,18.36
2017-06-04T22:44:08.022Z,18.35
2017-06-04T22:45:08.088Z,18.35
2017-06-04T22:46:07.977Z,18.34
2017-06-04T22:47:08.093Z,18.35
2017-06-04T22:48:07.998Z,18.33
2017-06-04T22:49:08.012Z,18.29
2017-06-04T22:50:08.042Z,18.30
2017-06-04T22:51:08.067Z,18.31
2017-06-04T22:52:08.114Z,18.31
2017-06-04T22:53:07.919Z,18.32
2017-06-04T22:54:08.019Z,18.31
2017-06-04T22:55:08.072Z,18.30
2017-06-04T22:56:08.054Z,18.31
2017-06-04T22:57:08.140Z,18.30
2017-06-04T22:58:08.034Z,18.28
2017-06-04T22:59:08.011Z,18.28
2017-06-04T23:00:08.041Z,18.28
2017-06-04T23:01:08.058Z,18.29
2017-06-04T23:02:08.168Z,18.29
2017-06-04T23:03:08.006Z,18.29
2017-06-04T23:04:08.059Z,18.29
2017-06-04T23:05:07.946Z,18.28
2017-06-04T23:06:08.064Z,18.28
2017-06-04T23:07:09.149Z,18.26
2017-06-04T23:08:08.008Z,18.22
2017-06-04T23:09:08.010Z,18.21
2017-06-04T23:10:08.050Z,18.20
2017-06-04T23:11:07.970Z,18.19
2017-06-04T23:12:08.101Z,18.19
2017-06-04T23:13:08.211Z,18.17
2017-06-04T23:14:08.974Z,18.19
2017-06-04T23:15:07.990Z,18.16
2017-06-04T23:16:08.148Z,18.13
2017-06-04T23:17:08.139Z,18.12
2017-06-04T23:18:07.396Z,18.12
2017-06-04T23:19:08.067Z,18.13
2017-06-04T23:20:07.957Z,18.14
2017-06-04T23:21:08.272Z,18.14
2017-06-04T23:22:08.129Z,18.14
2017-06-04T23:23:08.150Z,18.12
2017-06-04T23:24:08.038Z,18.09
2017-06-04T23:25:07.974Z,18.07
2017-06-04T23:26:08.218Z,18.08
2017-06-04T23:27:07.612Z,18.06
2017-06-04T23:28:08.023Z,18.04
2017-06-04T23:29:07.587Z,18.07
2017-06-04T23:30:07.529Z,18.06
2017-06-04T23:31:07.495Z,18.04
2017-06-04T23:32:07.474Z,18.04
2017-06-04T23:33:07.514Z,18.01
2017-06-04T23:34:07.314Z,17.97
2017-06-04T23:35:08.118Z,17.91
2017-06-04T23:36:08.153Z,17.91
2017-06-04T23:37:08.117Z,17.86
2017-06-04T23:38:08.307Z,17.88
2017-06-04T23:39:08.037Z,17.87
2017-06-04T23:40:08.018Z,17.88
2017-06-04T23:41:08.125Z,17.86
2017-06-04T23:42:08.041Z,17.86
2017-06-04T23:43:08.199Z,17.84
2017-06-04T23:44:08.012Z,17.86
2017-06-04T23:45:08.090Z,17.84
2017-06-04T23:46:08.157Z,17.83
2017-06-04T23:47:08.122Z,17.81
2017-06-04T23:48:08.180Z,17.80
2017-06-04T23:49:08.123Z,17.78
2017-06-04T23:50:08.143Z,17.77
2017-06-04T23:51:08.278Z,17.78
2017-06-04T23:52:08.112Z,17.74
2017-06-04T23:53:08.007Z,17.70
2017-06-04T23:54:08.136Z,17.71
2017-06-04T23:55:08.174Z,17.75
2017-06-04T23:56:08.088Z,17.73
2017-06-04T23:57:08.269Z,17.71
2017-06-04T23:58:08.415Z,17.69
2017-06-04T23:59:08.113Z,17.67
